sensor_id;sensor_type;location;lat;lon;timestamp;P1;durP1;ratioP1;P2;durP2;ratioP2
23670;SDS011;12012;51.998;7.614;2022-12-10T00:01:22;44.13;;;22.70;;
23670;SDS011;12012;51.998;7.614;2022-12-10T00:03:48;60.97;;;28.08;;
23670;SDS011;12012;51.998;7.614;2022-12-10T00:06:15;48.58;;;23.08;;
23670;SDS011;12012;51.998;7.614;2022-12-10T00:08:42;57.33;;;27.90;;
23670;SDS011;12012;51.998;7.614;2022-12-10T00:11:09;51.60;;;26.15;;
23670;SDS011;12012;51.998;7.614;2022-12-10T00:13:36;53.92;;;27.75;;
23670;SDS011;12012;51.998;7.614;2022-12-10T00:16:03;59.72;;;29.50;;
23670;SDS011;12012;51.998;7.614;2022-12-10T00:18:30;53.85;;;28.45;;
23670;SDS011;12012;51.998;7.614;2022-12-10T00:20:56;60.40;;;29.30;;
23670;SDS011;12012;51.998;7.614;2022-12-10T00:23:21;59.22;;;29.40;;
23670;SDS011;12012;51.998;7.614;2022-12-10T00:25:47;57.42;;;26.80;;
23670;SDS011;12012;51.998;7.614;2022-12-10T00:28:13;51.20;;;25.35;;
23670;SDS011;12012;51.998;7.614;2022-12-10T00:30:38;62.45;;;30.95;;
23670;SDS011;12012;51.998;7.614;2022-12-10T00:33:04;53.03;;;26.23;;
23670;SDS011;12012;51.998;7.614;2022-12-10T00:35:30;54.70;;;28.08;;
23670;SDS011;12012;51.998;7.614;2022-12-10T00:37:56;50.60;;;25.55;;
23670;SDS011;12012;51.998;7.614;2022-12-10T00:40:22;53.92;;;27.33;;
23670;SDS011;12012;51.998;7.614;2022-12-10T00:42:47;44.33;;;22.80;;
23670;SDS011;12012;51.998;7.614;2022-12-10T00:45:13;49.10;;;26.13;;
23670;SDS011;12012;51.998;7.614;2022-12-10T00:47:38;46.70;;;24.52;;
23670;SDS011;12012;51.998;7.614;2022-12-10T00:50:04;51.97;;;24.88;;
23670;SDS011;12012;51.998;7.614;2022-12-10T00:52:30;45.15;;;22.75;;
23670;SDS011;12012;51.998;7.614;2022-12-10T00:54:55;48.47;;;26.02;;
23670;SDS011;12012;51.998;7.614;2022-12-10T00:57:21;39.47;;;20.02;;
23670;SDS011;12012;51.998;7.614;2022-12-10T00:59:46;38.00;;;19.48;;
23670;SDS011;12012;51.998;7.614;2022-12-10T01:02:12;27.63;;;16.50;;
23670;SDS011;12012;51.998;7.614;2022-12-10T01:04:37;35.05;;;19.02;;
23670;SDS011;12012;51.998;7.614;2022-12-10T01:07:03;39.50;;;21.02;;
23670;SDS011;12012;51.998;7.614;2022-12-10T01:09:29;39.60;;;21.42;;
23670;SDS011;12012;51.998;7.614;2022-12-10T01:11:56;34.85;;;18.95;;
23670;SDS011;12012;51.998;7.614;2022-12-10T01:14:29;30.90;;;18.42;;
23670;SDS011;12012;51.998;7.614;2022-12-10T01:16:57;39.20;;;21.17;;
23670;SDS011;12012;51.998;7.614;2022-12-10T01:19:28;49.38;;;26.35;;
23670;SDS011;12012;51.998;7.614;2022-12-10T01:21:54;45.47;;;23.52;;
23670;SDS011;12012;51.998;7.614;2022-12-10T01:24:21;51.53;;;28.02;;
23670;SDS011;12012;51.998;7.614;2022-12-10T01:26:48;52.65;;;27.00;;
23670;SDS011;12012;51.998;7.614;2022-12-10T01:29:14;48.08;;;24.95;;
23670;SDS011;12012;51.998;7.614;2022-12-10T01:31:40;51.63;;;26.50;;
23670;SDS011;12012;51.998;7.614;2022-12-10T01:34:07;53.22;;;27.77;;
23670;SDS011;12012;51.998;7.614;2022-12-10T01:36:36;41.17;;;21.70;;
23670;SDS011;12012;51.998;7.614;2022-12-10T01:39:03;54.10;;;28.75;;
23670;SDS011;12012;51.998;7.614;2022-12-10T01:41:33;57.17;;;28.25;;
23670;SDS011;12012;51.998;7.614;2022-12-10T01:46:34;42.38;;;22.00;;
23670;SDS011;12012;51.998;7.614;2022-12-10T01:49:02;34.50;;;19.35;;
23670;SDS011;12012;51.998;7.614;2022-12-10T01:51:31;35.97;;;20.48;;
23670;SDS011;12012;51.998;7.614;2022-12-10T01:54:08;42.55;;;22.85;;
23670;SDS011;12012;51.998;7.614;2022-12-10T01:56:36;42.50;;;22.67;;
23670;SDS011;12012;51.998;7.614;2022-12-10T01:59:05;40.05;;;22.17;;
23670;SDS011;12012;51.998;7.614;2022-12-10T02:04:19;43.17;;;23.33;;
23670;SDS011;12012;51.998;7.614;2022-12-10T02:10:02;46.28;;;24.38;;
23670;SDS011;12012;51.998;7.614;2022-12-10T02:15:08;35.10;;;20.83;;
23670;SDS011;12012;51.998;7.614;2022-12-10T02:17:40;35.05;;;18.52;;
23670;SDS011;12012;51.998;7.614;2022-12-10T02:25:26;36.05;;;18.25;;
23670;SDS011;12012;51.998;7.614;2022-12-10T02:28:12;34.40;;;18.35;;
23670;SDS011;12012;51.998;7.614;2022-12-10T02:30:46;30.52;;;17.13;;
23670;SDS011;12012;51.998;7.614;2022-12-10T02:33:15;33.45;;;18.13;;
23670;SDS011;12012;51.998;7.614;2022-12-10T02:35:42;35.22;;;20.70;;
23670;SDS011;12012;51.998;7.614;2022-12-10T02:38:23;32.15;;;17.08;;
23670;SDS011;12012;51.998;7.614;2022-12-10T02:41:00;31.00;;;17.63;;
23670;SDS011;12012;51.998;7.614;2022-12-10T02:43:29;34.78;;;18.23;;
23670;SDS011;12012;51.998;7.614;2022-12-10T02:45:56;31.00;;;18.55;;
23670;SDS011;12012;51.998;7.614;2022-12-10T02:48:23;41.78;;;24.77;;
23670;SDS011;12012;51.998;7.614;2022-12-10T02:50:50;43.83;;;24.48;;
23670;SDS011;12012;51.998;7.614;2022-12-10T02:53:15;33.47;;;19.77;;
23670;SDS011;12012;51.998;7.614;2022-12-10T02:58:31;39.60;;;22.35;;
23670;SDS011;12012;51.998;7.614;2022-12-10T03:06:20;38.70;;;22.55;;
23670;SDS011;12012;51.998;7.614;2022-12-10T03:08:52;40.60;;;22.17;;
23670;SDS011;12012;51.998;7.614;2022-12-10T03:11:26;39.55;;;22.58;;
23670;SDS011;12012;51.998;7.614;2022-12-10T03:14:03;37.55;;;22.15;;
23670;SDS011;12012;51.998;7.614;2022-12-10T03:16:58;39.75;;;23.52;;
23670;SDS011;12012;51.998;7.614;2022-12-10T03:19:27;49.25;;;26.98;;
23670;SDS011;12012;51.998;7.614;2022-12-10T03:22:00;39.88;;;22.45;;
23670;SDS011;12012;51.998;7.614;2022-12-10T03:24:27;43.38;;;24.83;;
23670;SDS011;12012;51.998;7.614;2022-12-10T03:26:54;39.20;;;22.33;;
23670;SDS011;12012;51.998;7.614;2022-12-10T03:29:23;36.85;;;20.80;;
23670;SDS011;12012;51.998;7.614;2022-12-10T03:31:52;34.53;;;20.40;;
23670;SDS011;12012;51.998;7.614;2022-12-10T03:34:19;40.65;;;21.60;;
23670;SDS011;12012;51.998;7.614;2022-12-10T03:36:45;38.20;;;21.13;;
23670;SDS011;12012;51.998;7.614;2022-12-10T03:39:12;40.08;;;21.52;;
23670;SDS011;12012;51.998;7.614;2022-12-10T03:41:45;37.60;;;21.23;;
23670;SDS011;12012;51.998;7.614;2022-12-10T03:44:11;35.92;;;20.05;;
23670;SDS011;12012;51.998;7.614;2022-12-10T03:46:37;35.15;;;21.23;;
23670;SDS011;12012;51.998;7.614;2022-12-10T03:49:02;41.10;;;21.65;;
23670;SDS011;12012;51.998;7.614;2022-12-10T03:51:28;32.67;;;19.83;;
23670;SDS011;12012;51.998;7.614;2022-12-10T03:53:54;41.08;;;22.83;;
23670;SDS011;12012;51.998;7.614;2022-12-10T03:56:20;39.30;;;22.38;;
23670;SDS011;12012;51.998;7.614;2022-12-10T03:58:46;37.47;;;21.35;;
23670;SDS011;12012;51.998;7.614;2022-12-10T04:01:12;38.05;;;21.23;;
23670;SDS011;12012;51.998;7.614;2022-12-10T04:03:38;39.42;;;22.25;;
23670;SDS011;12012;51.998;7.614;2022-12-10T04:06:06;39.72;;;22.48;;
23670;SDS011;12012;51.998;7.614;2022-12-10T04:08:34;39.60;;;22.50;;
23670;SDS011;12012;51.998;7.614;2022-12-10T04:11:07;37.97;;;21.75;;
23670;SDS011;12012;51.998;7.614;2022-12-10T04:13:34;42.22;;;24.20;;
23670;SDS011;12012;51.998;7.614;2022-12-10T04:16:19;41.63;;;24.40;;
23670;SDS011;12012;51.998;7.614;2022-12-10T04:18:56;42.63;;;22.65;;
23670;SDS011;12012;51.998;7.614;2022-12-10T04:21:23;40.67;;;24.70;;
23670;SDS011;12012;51.998;7.614;2022-12-10T04:24:09;45.10;;;26.48;;
23670;SDS011;12012;51.998;7.614;2022-12-10T04:26:54;42.75;;;25.63;;
23670;SDS011;12012;51.998;7.614;2022-12-10T04:29:22;46.38;;;27.50;;
23670;SDS011;12012;51.998;7.614;2022-12-10T04:31:52;41.45;;;23.45;;
23670;SDS011;12012;51.998;7.614;2022-12-10T04:34:18;41.38;;;23.70;;
23670;SDS011;12012;51.998;7.614;2022-12-10T04:36:44;44.90;;;24.23;;
23670;SDS011;12012;51.998;7.614;2022-12-10T04:39:11;37.75;;;22.27;;
23670;SDS011;12012;51.998;7.614;2022-12-10T04:41:40;38.72;;;22.20;;
23670;SDS011;12012;51.998;7.614;2022-12-10T04:44:07;39.60;;;23.15;;
23670;SDS011;12012;51.998;7.614;2022-12-10T04:46:33;36.28;;;21.02;;
23670;SDS011;12012;51.998;7.614;2022-12-10T04:48:58;42.60;;;23.77;;
23670;SDS011;12012;51.998;7.614;2022-12-10T04:51:24;38.80;;;22.38;;
23670;SDS011;12012;51.998;7.614;2022-12-10T04:53:49;35.90;;;20.88;;
23670;SDS011;12012;51.998;7.614;2022-12-10T04:56:15;46.70;;;25.52;;
23670;SDS011;12012;51.998;7.614;2022-12-10T04:58:41;35.60;;;21.20;;
23670;SDS011;12012;51.998;7.614;2022-12-10T05:01:07;39.85;;;24.08;;
23670;SDS011;12012;51.998;7.614;2022-12-10T05:03:34;49.45;;;27.60;;
23670;SDS011;12012;51.998;7.614;2022-12-10T05:06:03;43.85;;;25.30;;
23670;SDS011;12012;51.998;7.614;2022-12-10T05:08:30;52.70;;;29.75;;
23670;SDS011;12012;51.998;7.614;2022-12-10T05:10:59;49.78;;;28.40;;
23670;SDS011;12012;51.998;7.614;2022-12-10T05:13:37;41.35;;;24.42;;
23670;SDS011;12012;51.998;7.614;2022-12-10T05:16:04;40.47;;;23.05;;
23670;SDS011;12012;51.998;7.614;2022-12-10T05:18:31;45.35;;;26.77;;
23670;SDS011;12012;51.998;7.614;2022-12-10T05:21:01;46.90;;;26.02;;
23670;SDS011;12012;51.998;7.614;2022-12-10T05:23:27;60.58;;;33.28;;
23670;SDS011;12012;51.998;7.614;2022-12-10T05:30:50;57.63;;;31.50;;
23670;SDS011;12012;51.998;7.614;2022-12-10T05:33:16;54.03;;;30.63;;
23670;SDS011;12012;51.998;7.614;2022-12-10T05:35:41;56.72;;;31.63;;
23670;SDS011;12012;51.998;7.614;2022-12-10T05:38:07;46.65;;;27.73;;
23670;SDS011;12012;51.998;7.614;2022-12-10T05:40:35;46.63;;;27.55;;
23670;SDS011;12012;51.998;7.614;2022-12-10T05:43:01;53.95;;;31.92;;
23670;SDS011;12012;51.998;7.614;2022-12-10T05:45:27;44.45;;;25.48;;
23670;SDS011;12012;51.998;7.614;2022-12-10T05:47:53;57.20;;;31.25;;
23670;SDS011;12012;51.998;7.614;2022-12-10T05:50:18;49.47;;;28.83;;
23670;SDS011;12012;51.998;7.614;2022-12-10T05:52:44;47.28;;;27.25;;
23670;SDS011;12012;51.998;7.614;2022-12-10T05:55:09;57.42;;;32.45;;
23670;SDS011;12012;51.998;7.614;2022-12-10T05:57:36;53.20;;;30.70;;
23670;SDS011;12012;51.998;7.614;2022-12-10T06:00:03;55.47;;;30.77;;
23670;SDS011;12012;51.998;7.614;2022-12-10T06:02:32;45.08;;;26.63;;
23670;SDS011;12012;51.998;7.614;2022-12-10T06:04:58;53.97;;;29.48;;
23670;SDS011;12012;51.998;7.614;2022-12-10T06:07:23;48.30;;;28.27;;
23670;SDS011;12012;51.998;7.614;2022-12-10T06:09:49;47.20;;;26.98;;
23670;SDS011;12012;51.998;7.614;2022-12-10T06:12:14;47.75;;;26.75;;
23670;SDS011;12012;51.998;7.614;2022-12-10T06:14:40;52.53;;;30.33;;
23670;SDS011;12012;51.998;7.614;2022-12-10T06:17:05;48.33;;;28.80;;
23670;SDS011;12012;51.998;7.614;2022-12-10T06:19:31;46.65;;;28.02;;
23670;SDS011;12012;51.998;7.614;2022-12-10T06:21:57;45.33;;;26.25;;
23670;SDS011;12012;51.998;7.614;2022-12-10T06:24:23;50.03;;;27.98;;
23670;SDS011;12012;51.998;7.614;2022-12-10T06:26:49;68.30;;;35.55;;
23670;SDS011;12012;51.998;7.614;2022-12-10T06:29:15;54.30;;;31.80;;
23670;SDS011;12012;51.998;7.614;2022-12-10T06:31:40;53.97;;;29.83;;
23670;SDS011;12012;51.998;7.614;2022-12-10T06:34:06;60.67;;;34.92;;
23670;SDS011;12012;51.998;7.614;2022-12-10T06:36:32;58.78;;;33.28;;
23670;SDS011;12012;51.998;7.614;2022-12-10T06:38:57;49.70;;;28.17;;
23670;SDS011;12012;51.998;7.614;2022-12-10T06:41:23;56.40;;;33.03;;
23670;SDS011;12012;51.998;7.614;2022-12-10T06:43:48;56.75;;;32.50;;
23670;SDS011;12012;51.998;7.614;2022-12-10T06:46:15;59.88;;;33.67;;
23670;SDS011;12012;51.998;7.614;2022-12-10T06:48:43;64.05;;;35.03;;
23670;SDS011;12012;51.998;7.614;2022-12-10T06:51:09;62.95;;;34.83;;
23670;SDS011;12012;51.998;7.614;2022-12-10T06:53:35;55.60;;;30.92;;
23670;SDS011;12012;51.998;7.614;2022-12-10T06:56:02;51.63;;;29.52;;
23670;SDS011;12012;51.998;7.614;2022-12-10T06:58:29;47.33;;;28.27;;
23670;SDS011;12012;51.998;7.614;2022-12-10T07:01:06;53.13;;;29.73;;
23670;SDS011;12012;51.998;7.614;2022-12-10T07:03:51;50.90;;;29.13;;
23670;SDS011;12012;51.998;7.614;2022-12-10T07:06:18;60.83;;;33.70;;
23670;SDS011;12012;51.998;7.614;2022-12-10T07:08:45;54.60;;;31.35;;
23670;SDS011;12012;51.998;7.614;2022-12-10T07:11:12;54.05;;;30.98;;
23670;SDS011;12012;51.998;7.614;2022-12-10T07:13:39;54.35;;;30.85;;
23670;SDS011;12012;51.998;7.614;2022-12-10T07:16:15;60.88;;;33.40;;
23670;SDS011;12012;51.998;7.614;2022-12-10T07:18:43;56.78;;;31.38;;
23670;SDS011;12012;51.998;7.614;2022-12-10T07:21:16;62.72;;;33.83;;
23670;SDS011;12012;51.998;7.614;2022-12-10T07:23:44;54.72;;;29.95;;
23670;SDS011;12012;51.998;7.614;2022-12-10T07:26:10;60.22;;;32.28;;
23670;SDS011;12012;51.998;7.614;2022-12-10T07:28:36;52.90;;;28.73;;
23670;SDS011;12012;51.998;7.614;2022-12-10T07:31:02;50.33;;;27.80;;
23670;SDS011;12012;51.998;7.614;2022-12-10T07:33:28;55.17;;;30.08;;
23670;SDS011;12012;51.998;7.614;2022-12-10T07:35:54;73.97;;;36.92;;
23670;SDS011;12012;51.998;7.614;2022-12-10T07:38:19;56.33;;;29.30;;
23670;SDS011;12012;51.998;7.614;2022-12-10T07:40:45;56.08;;;30.60;;
23670;SDS011;12012;51.998;7.614;2022-12-10T07:43:10;62.95;;;32.88;;
23670;SDS011;12012;51.998;7.614;2022-12-10T07:45:36;56.97;;;31.25;;
23670;SDS011;12012;51.998;7.614;2022-12-10T07:48:02;57.53;;;31.08;;
23670;SDS011;12012;51.998;7.614;2022-12-10T07:50:27;58.85;;;30.83;;
23670;SDS011;12012;51.998;7.614;2022-12-10T07:52:53;63.50;;;32.90;;
23670;SDS011;12012;51.998;7.614;2022-12-10T07:55:18;67.53;;;36.63;;
23670;SDS011;12012;51.998;7.614;2022-12-10T07:57:44;63.50;;;33.13;;
23670;SDS011;12012;51.998;7.614;2022-12-10T08:00:10;53.47;;;29.80;;
23670;SDS011;12012;51.998;7.614;2022-12-10T08:02:36;58.17;;;30.92;;
23670;SDS011;12012;51.998;7.614;2022-12-10T08:05:01;57.92;;;30.67;;
23670;SDS011;12012;51.998;7.614;2022-12-10T08:07:27;57.97;;;31.10;;
23670;SDS011;12012;51.998;7.614;2022-12-10T08:09:52;56.30;;;30.08;;
23670;SDS011;12012;51.998;7.614;2022-12-10T08:12:18;63.20;;;33.33;;
23670;SDS011;12012;51.998;7.614;2022-12-10T08:14:44;61.97;;;31.77;;
23670;SDS011;12012;51.998;7.614;2022-12-10T08:17:09;65.55;;;33.55;;
23670;SDS011;12012;51.998;7.614;2022-12-10T08:19:35;64.35;;;33.25;;
23670;SDS011;12012;51.998;7.614;2022-12-10T08:22:00;63.88;;;33.25;;
23670;SDS011;12012;51.998;7.614;2022-12-10T08:24:26;55.65;;;29.13;;
23670;SDS011;12012;51.998;7.614;2022-12-10T08:26:51;60.05;;;30.63;;
23670;SDS011;12012;51.998;7.614;2022-12-10T08:29:17;52.85;;;30.60;;
23670;SDS011;12012;51.998;7.614;2022-12-10T08:31:42;46.53;;;26.33;;
23670;SDS011;12012;51.998;7.614;2022-12-10T08:34:12;62.90;;;32.33;;
23670;SDS011;12012;51.998;7.614;2022-12-10T08:36:39;63.45;;;33.47;;
23670;SDS011;12012;51.998;7.614;2022-12-10T08:39:05;61.05;;;33.45;;
23670;SDS011;12012;51.998;7.614;2022-12-10T08:41:30;54.17;;;28.80;;
23670;SDS011;12012;51.998;7.614;2022-12-10T08:43:56;55.83;;;29.48;;
23670;SDS011;12012;51.998;7.614;2022-12-10T08:46:22;56.15;;;29.90;;
23670;SDS011;12012;51.998;7.614;2022-12-10T08:48:49;53.05;;;28.50;;
23670;SDS011;12012;51.998;7.614;2022-12-10T08:51:16;53.05;;;29.23;;
23670;SDS011;12012;51.998;7.614;2022-12-10T08:53:43;44.88;;;25.48;;
23670;SDS011;12012;51.998;7.614;2022-12-10T08:56:09;57.95;;;31.45;;
23670;SDS011;12012;51.998;7.614;2022-12-10T08:58:35;48.17;;;27.63;;
23670;SDS011;12012;51.998;7.614;2022-12-10T09:01:09;60.50;;;33.05;;
23670;SDS011;12012;51.998;7.614;2022-12-10T09:03:36;45.90;;;25.77;;
23670;SDS011;12012;51.998;7.614;2022-12-10T09:06:03;50.75;;;29.05;;
23670;SDS011;12012;51.998;7.614;2022-12-10T09:08:34;54.70;;;30.20;;
23670;SDS011;12012;51.998;7.614;2022-12-10T09:11:04;57.65;;;31.40;;
23670;SDS011;12012;51.998;7.614;2022-12-10T09:13:31;58.45;;;31.83;;
23670;SDS011;12012;51.998;7.614;2022-12-10T09:15:56;56.22;;;31.13;;
23670;SDS011;12012;51.998;7.614;2022-12-10T09:18:22;53.35;;;31.52;;
23670;SDS011;12012;51.998;7.614;2022-12-10T09:20:47;49.08;;;27.67;;
23670;SDS011;12012;51.998;7.614;2022-12-10T09:23:13;58.03;;;32.20;;
23670;SDS011;12012;51.998;7.614;2022-12-10T09:25:39;53.95;;;32.47;;
23670;SDS011;12012;51.998;7.614;2022-12-10T09:28:04;54.72;;;32.03;;
23670;SDS011;12012;51.998;7.614;2022-12-10T09:30:30;53.20;;;29.77;;
23670;SDS011;12012;51.998;7.614;2022-12-10T09:32:55;50.92;;;30.25;;
23670;SDS011;12012;51.998;7.614;2022-12-10T09:35:21;55.42;;;30.45;;
23670;SDS011;12012;51.998;7.614;2022-12-10T09:37:46;47.85;;;27.20;;
23670;SDS011;12012;51.998;7.614;2022-12-10T09:40:16;51.03;;;28.67;;
23670;SDS011;12012;51.998;7.614;2022-12-10T09:42:50;43.60;;;25.90;;
23670;SDS011;12012;51.998;7.614;2022-12-10T09:45:30;41.50;;;24.70;;
23670;SDS011;12012;51.998;7.614;2022-12-10T09:53:24;39.97;;;24.50;;
23670;SDS011;12012;51.998;7.614;2022-12-10T09:55:53;39.63;;;22.98;;
23670;SDS011;12012;51.998;7.614;2022-12-10T09:58:22;35.58;;;20.95;;
23670;SDS011;12012;51.998;7.614;2022-12-10T10:00:51;33.27;;;20.33;;
23670;SDS011;12012;51.998;7.614;2022-12-10T10:03:22;35.60;;;21.48;;
23670;SDS011;12012;51.998;7.614;2022-12-10T10:05:52;39.45;;;22.13;;
23670;SDS011;12012;51.998;7.614;2022-12-10T10:08:41;35.40;;;21.92;;
23670;SDS011;12012;51.998;7.614;2022-12-10T10:11:05;38.33;;;22.50;;
23670;SDS011;12012;51.998;7.614;2022-12-10T10:16:35;41.38;;;23.50;;
23670;SDS011;12012;51.998;7.614;2022-12-10T10:19:03;35.85;;;21.27;;
23670;SDS011;12012;51.998;7.614;2022-12-10T10:21:50;32.88;;;20.50;;
23670;SDS011;12012;51.998;7.614;2022-12-10T10:24:21;35.00;;;21.80;;
23670;SDS011;12012;51.998;7.614;2022-12-10T10:26:49;31.95;;;21.20;;
23670;SDS011;12012;51.998;7.614;2022-12-10T10:29:18;36.47;;;21.85;;
23670;SDS011;12012;51.998;7.614;2022-12-10T10:31:46;34.30;;;21.17;;
23670;SDS011;12012;51.998;7.614;2022-12-10T10:34:32;40.15;;;24.08;;
23670;SDS011;12012;51.998;7.614;2022-12-10T10:36:57;40.35;;;24.27;;
23670;SDS011;12012;51.998;7.614;2022-12-10T10:39:29;43.40;;;26.48;;
23670;SDS011;12012;51.998;7.614;2022-12-10T10:41:57;41.67;;;26.52;;
23670;SDS011;12012;51.998;7.614;2022-12-10T10:44:28;39.15;;;23.95;;
23670;SDS011;12012;51.998;7.614;2022-12-10T10:47:00;43.70;;;25.90;;
23670;SDS011;12012;51.998;7.614;2022-12-10T10:49:27;47.53;;;27.38;;
23670;SDS011;12012;51.998;7.614;2022-12-10T10:52:16;48.30;;;26.67;;
23670;SDS011;12012;51.998;7.614;2022-12-10T10:54:43;43.97;;;27.13;;
23670;SDS011;12012;51.998;7.614;2022-12-10T10:57:29;50.95;;;28.52;;
23670;SDS011;12012;51.998;7.614;2022-12-10T11:02:42;52.38;;;31.92;;
23670;SDS011;12012;51.998;7.614;2022-12-10T11:05:15;51.47;;;31.60;;
23670;SDS011;12012;51.998;7.614;2022-12-10T11:07:57;53.25;;;31.88;;
23670;SDS011;12012;51.998;7.614;2022-12-10T11:10:26;53.88;;;32.75;;
23670;SDS011;12012;51.998;7.614;2022-12-10T11:15:30;52.50;;;33.42;;
23670;SDS011;12012;51.998;7.614;2022-12-10T11:17:59;54.65;;;32.72;;
23670;SDS011;12012;51.998;7.614;2022-12-10T11:20:27;53.25;;;32.80;;
23670;SDS011;12012;51.998;7.614;2022-12-10T11:22:56;56.95;;;34.20;;
23670;SDS011;12012;51.998;7.614;2022-12-10T11:25:27;54.03;;;32.58;;
23670;SDS011;12012;51.998;7.614;2022-12-10T11:30:30;54.22;;;33.65;;
23670;SDS011;12012;51.998;7.614;2022-12-10T11:36:24;53.97;;;33.40;;
23670;SDS011;12012;51.998;7.614;2022-12-10T11:42:11;49.25;;;33.63;;
23670;SDS011;12012;51.998;7.614;2022-12-10T11:45:07;58.13;;;36.85;;
23670;SDS011;12012;51.998;7.614;2022-12-10T11:51:05;55.10;;;34.78;;
23670;SDS011;12012;51.998;7.614;2022-12-10T11:59:46;67.50;;;38.10;;
23670;SDS011;12012;51.998;7.614;2022-12-10T12:02:26;60.53;;;35.85;;
23670;SDS011;12012;51.998;7.614;2022-12-10T12:13:28;88.60;;;45.63;;
23670;SDS011;12012;51.998;7.614;2022-12-10T12:21:04;96.57;;;46.53;;
23670;SDS011;12012;51.998;7.614;2022-12-10T12:23:46;96.25;;;46.55;;
23670;SDS011;12012;51.998;7.614;2022-12-10T12:26:15;92.93;;;45.03;;
23670;SDS011;12012;51.998;7.614;2022-12-10T12:29:08;96.10;;;45.53;;
23670;SDS011;12012;51.998;7.614;2022-12-10T12:35:01;88.50;;;42.67;;
23670;SDS011;12012;51.998;7.614;2022-12-10T12:37:39;95.78;;;44.85;;
23670;SDS011;12012;51.998;7.614;2022-12-10T12:40:32;86.25;;;43.35;;
23670;SDS011;12012;51.998;7.614;2022-12-10T12:43:02;81.60;;;41.47;;
23670;SDS011;12012;51.998;7.614;2022-12-10T12:45:36;85.22;;;42.20;;
23670;SDS011;12012;51.998;7.614;2022-12-10T12:48:16;84.40;;;43.40;;
23670;SDS011;12012;51.998;7.614;2022-12-10T12:51:12;93.57;;;45.05;;
23670;SDS011;12012;51.998;7.614;2022-12-10T12:53:53;97.53;;;45.28;;
23670;SDS011;12012;51.998;7.614;2022-12-10T13:04:46;96.72;;;45.47;;
23670;SDS011;12012;51.998;7.614;2022-12-10T13:09:45;95.72;;;45.25;;
23670;SDS011;12012;51.998;7.614;2022-12-10T13:12:27;92.35;;;43.90;;
23670;SDS011;12012;51.998;7.614;2022-12-10T13:17:27;90.38;;;43.88;;
23670;SDS011;12012;51.998;7.614;2022-12-10T13:23:01;89.88;;;41.33;;
23670;SDS011;12012;51.998;7.614;2022-12-10T13:26:16;91.88;;;45.10;;
23670;SDS011;12012;51.998;7.614;2022-12-10T13:28:21;97.80;;;43.80;;
23670;SDS011;12012;51.998;7.614;2022-12-10T13:41:33;99.25;;;44.65;;
23670;SDS011;12012;51.998;7.614;2022-12-10T13:44:46;86.10;;;40.25;;
23670;SDS011;12012;51.998;7.614;2022-12-10T13:47:23;89.32;;;41.92;;
23670;SDS011;12012;51.998;7.614;2022-12-10T13:49:58;89.32;;;42.50;;
23670;SDS011;12012;51.998;7.614;2022-12-10T13:52:42;92.35;;;43.00;;
23670;SDS011;12012;51.998;7.614;2022-12-10T13:55:38;97.93;;;44.67;;
23670;SDS011;12012;51.998;7.614;2022-12-10T14:06:20;102.15;;;45.65;;
23670;SDS011;12012;51.998;7.614;2022-12-10T14:11:28;100.78;;;42.88;;
23670;SDS011;12012;51.998;7.614;2022-12-10T14:13:58;102.63;;;44.83;;
23670;SDS011;12012;51.998;7.614;2022-12-10T14:16:26;96.32;;;42.67;;
23670;SDS011;12012;51.998;7.614;2022-12-10T14:18:58;101.03;;;44.80;;
23670;SDS011;12012;51.998;7.614;2022-12-10T14:21:31;103.30;;;46.22;;
23670;SDS011;12012;51.998;7.614;2022-12-10T14:24:02;100.35;;;45.53;;
23670;SDS011;12012;51.998;7.614;2022-12-10T14:26:29;102.30;;;44.60;;
23670;SDS011;12012;51.998;7.614;2022-12-10T14:28:58;110.60;;;47.30;;
23670;SDS011;12012;51.998;7.614;2022-12-10T14:31:30;94.07;;;42.83;;
23670;SDS011;12012;51.998;7.614;2022-12-10T14:34:07;96.65;;;44.17;;
23670;SDS011;12012;51.998;7.614;2022-12-10T14:36:39;95.50;;;43.08;;
23670;SDS011;12012;51.998;7.614;2022-12-10T14:39:14;94.70;;;42.90;;
23670;SDS011;12012;51.998;7.614;2022-12-10T14:44:11;93.40;;;42.10;;
23670;SDS011;12012;51.998;7.614;2022-12-10T14:46:39;94.50;;;42.10;;
23670;SDS011;12012;51.998;7.614;2022-12-10T14:49:06;100.63;;;45.92;;
23670;SDS011;12012;51.998;7.614;2022-12-10T14:51:39;107.53;;;50.42;;
23670;SDS011;12012;51.998;7.614;2022-12-10T14:54:05;105.03;;;47.15;;
23670;SDS011;12012;51.998;7.614;2022-12-10T14:56:48;96.82;;;42.20;;
23670;SDS011;12012;51.998;7.614;2022-12-10T14:59:16;105.03;;;46.80;;
23670;SDS011;12012;51.998;7.614;2022-12-10T15:01:48;101.13;;;45.67;;
23670;SDS011;12012;51.998;7.614;2022-12-10T15:04:19;104.32;;;46.80;;
23670;SDS011;12012;51.998;7.614;2022-12-10T15:06:45;101.05;;;44.50;;
23670;SDS011;12012;51.998;7.614;2022-12-10T15:09:22;92.00;;;41.95;;
23670;SDS011;12012;51.998;7.614;2022-12-10T15:11:57;96.63;;;44.25;;
23670;SDS011;12012;51.998;7.614;2022-12-10T15:14:23;109.70;;;48.50;;
23670;SDS011;12012;51.998;7.614;2022-12-10T15:16:51;105.65;;;47.17;;
23670;SDS011;12012;51.998;7.614;2022-12-10T15:19:38;101.90;;;46.55;;
23670;SDS011;12012;51.998;7.614;2022-12-10T15:22:17;95.32;;;42.75;;
23670;SDS011;12012;51.998;7.614;2022-12-10T15:24:44;90.45;;;42.00;;
23670;SDS011;12012;51.998;7.614;2022-12-10T15:27:23;93.85;;;43.50;;
23670;SDS011;12012;51.998;7.614;2022-12-10T15:29:50;90.13;;;42.55;;
23670;SDS011;12012;51.998;7.614;2022-12-10T15:32:23;98.95;;;43.78;;
23670;SDS011;12012;51.998;7.614;2022-12-10T15:34:58;93.07;;;43.92;;
23670;SDS011;12012;51.998;7.614;2022-12-10T15:37:27;95.85;;;43.38;;
23670;SDS011;12012;51.998;7.614;2022-12-10T15:40:00;85.75;;;39.85;;
23670;SDS011;12012;51.998;7.614;2022-12-10T15:47:36;94.45;;;45.08;;
23670;SDS011;12012;51.998;7.614;2022-12-10T15:50:03;98.75;;;44.63;;
23670;SDS011;12012;51.998;7.614;2022-12-10T15:52:29;90.60;;;42.03;;
23670;SDS011;12012;51.998;7.614;2022-12-10T15:54:56;95.32;;;45.10;;
23670;SDS011;12012;51.998;7.614;2022-12-10T15:59:52;101.25;;;45.97;;
23670;SDS011;12012;51.998;7.614;2022-12-10T16:02:24;92.25;;;43.95;;
23670;SDS011;12012;51.998;7.614;2022-12-10T16:05:15;105.63;;;47.10;;
23670;SDS011;12012;51.998;7.614;2022-12-10T16:07:43;102.60;;;45.90;;
23670;SDS011;12012;51.998;7.614;2022-12-10T16:10:11;105.13;;;47.50;;
23670;SDS011;12012;51.998;7.614;2022-12-10T16:12:38;93.38;;;42.78;;
23670;SDS011;12012;51.998;7.614;2022-12-10T16:15:05;109.72;;;48.83;;
23670;SDS011;12012;51.998;7.614;2022-12-10T16:17:33;103.60;;;45.58;;
23670;SDS011;12012;51.998;7.614;2022-12-10T16:19:59;113.97;;;47.60;;
23670;SDS011;12012;51.998;7.614;2022-12-10T16:22:34;120.35;;;48.65;;
23670;SDS011;12012;51.998;7.614;2022-12-10T16:24:59;126.80;;;51.28;;
23670;SDS011;12012;51.998;7.614;2022-12-10T16:27:26;120.47;;;51.92;;
23670;SDS011;12012;51.998;7.614;2022-12-10T16:29:51;121.38;;;52.33;;
23670;SDS011;12012;51.998;7.614;2022-12-10T16:32:17;121.60;;;50.15;;
23670;SDS011;12012;51.998;7.614;2022-12-10T16:34:42;124.45;;;50.80;;
23670;SDS011;12012;51.998;7.614;2022-12-10T16:37:08;126.68;;;52.83;;
23670;SDS011;12012;51.998;7.614;2022-12-10T16:39:34;122.68;;;49.38;;
23670;SDS011;12012;51.998;7.614;2022-12-10T16:42:00;127.57;;;51.50;;